Flight Track Log - Related Links

Times and Time Zones

All times are in EDT time to prevent confusion due to time zone crossing. See the BYA373 flight status page for this flight to view local times or setup timezone preferences in your user account.

Time Position Orientation Groundspeed Altitude Reporting Facility
EDT Latitude Longitude Course Direction KTS MPH feet Rate Location/Type
Thu 07:17:27 PM 39.8797 -84.2419 230° Southwest 135 155 2,200  Level Indianapolis Center
Thu 07:18:07 PM 39.8650 -84.2631 228° Southwest 136 157 3,300 1,964 Climbing Indianapolis Center
Thu 07:18:22 PM 39.8581 -84.2797 242° Southwest 139 160 4,000 1,869 Climbing Indianapolis Center
Thu 07:19:08 PM 39.8450 -84.3039 235° Southwest 135 155 5,200 1,778 Climbing Indianapolis Center
Thu 07:20:10 PM 39.8231 -84.3414 233° Southwest 131 151 7,200 1,854 Climbing Indianapolis Center
Thu 07:21:11 PM 39.7967 -84.3742 224° Southwest 129 148 9,000 1,707 Climbing Indianapolis Center
Thu 07:22:13 PM 39.7728 -84.4164 234° Southwest 127 146 10,700 1,512 Climbing Indianapolis Center
Thu 07:23:14 PM 39.7419 -84.4439 214° Southwest 134 154 12,100 1,366 Climbing Indianapolis Center
Thu 07:24:16 PM 39.7025 -84.4572 195° South 142 163 13,500 1,317 Climbing Indianapolis Center
Thu 07:25:17 PM 39.6653 -84.4700 195° South 140 161 14,800 1,122 Climbing Indianapolis Center
Thu 07:26:19 PM 39.6286 -84.4825 195° South 137 158 15,800 927 Climbing Indianapolis Center
Thu 07:27:20 PM 39.5906 -84.4972 197° South 140 161 16,700 878 Climbing Indianapolis Center
Thu 07:28:22 PM 39.5525 -84.5131 198° South 143 165 17,600 878 Climbing Indianapolis Center
Thu 07:29:23 PM 39.5136 -84.5267 195° South 143 165 18,500 787 Climbing Indianapolis Center
Thu 07:30:24 PM 39.4719 -84.5356 189° South 150 173 19,200 683 Climbing Indianapolis Center
Thu 07:31:26 PM 39.4281 -84.5444 189° South 157 181 19,900 390 Climbing Indianapolis Center
Thu 07:32:27 PM 39.3839 -84.5569 192° South 161 185 20,000 49 Climbing Indianapolis Center
Thu 07:33:28 PM 39.3339 -84.5719 193° South 177 204 20,000  Level Indianapolis Center
Thu 07:34:30 PM 39.2719 -84.5906 193° South 191 220 20,000  Level Indianapolis Center
Thu 07:35:31 PM 39.2192 -84.6075 194° South 193 222 20,000 49 Level Indianapolis Center
Thu 07:36:32 PM 39.1650 -84.6200 190° South 195 224 20,100  Climbing Indianapolis Center
Thu 07:37:34 PM 39.1103 -84.6350 192° South 198 228 20,000 -49 Descending Indianapolis Center
Thu 07:38:35 PM 39.0578 -84.6567 198° South 198 228 20,000 49 Level Indianapolis Center
Thu 07:39:36 PM 39.0044 -84.6756 195° South 197 227 20,100  Climbing Indianapolis Center
Thu 07:40:38 PM 38.9503 -84.6956 196° South 200 230 20,000 -49 Descending Indianapolis Center
Thu 07:41:39 PM 38.8925 -84.7008 184° South 208 239 20,000  Level Indianapolis Center
Thu 07:42:40 PM 38.8372 -84.7081 186° South 202 232 20,000  Level Indianapolis Center
Thu 07:43:42 PM 38.7833 -84.7261 195° South 202 232 20,000  Level Indianapolis Center
Thu 07:44:43 PM 38.7319 -84.7489 199° South 198 228 20,000  Level Indianapolis Center
Thu 07:45:44 PM 38.6778 -84.7719 198° South 200 230 20,000  Level Indianapolis Center
Thu 07:46:46 PM 38.6167 -84.7933 195° South 198 228 20,000  Level Indianapolis Center
Thu 07:47:47 PM 38.5631 -84.8147 197° South 202 232 20,000  Level Indianapolis Center
Thu 07:48:49 PM 38.5086 -84.8369 198° South 203 234 20,000  Level Indianapolis Center
Thu 07:49:50 PM 38.4550 -84.8528 193° South 199 229 20,000  Level Indianapolis Center
Thu 07:50:51 PM 38.4011 -84.8736 197° South 201 231 20,000  Level Indianapolis Center
Thu 07:51:53 PM 38.3464 -84.8889 192° South 201 231 20,000  Level Indianapolis Center
Thu 07:52:54 PM 38.2908 -84.9047 193° South 203 234 20,000  Level Indianapolis Center
Thu 07:53:55 PM 38.2375 -84.9231 195° South 200 230 20,000  Level Indianapolis Center
Thu 07:54:57 PM 38.1744 -84.9417 193° South 199 229 20,000  Level Indianapolis Center
Thu 07:55:58 PM 38.1197 -84.9581 193° South 201 231 20,000  Level Indianapolis Center
Thu 07:56:59 PM 38.0656 -84.9750 194° South 200 230 20,000  Level Indianapolis Center
Thu 07:58:01 PM 38.0106 -84.9892 191° South 201 231 20,000  Level Indianapolis Center
Thu 07:59:02 PM 37.9569 -85.0064 194° South 199 229 20,000  Level Indianapolis Center
Thu 08:00:03 PM 37.8994 -85.0211 191° South 208 239 20,000  Level Indianapolis Center
Thu 08:01:05 PM 37.8458 -85.0375 194° South 200 230 20,000  Level Indianapolis Center
Thu 08:02:06 PM 37.7906 -85.0519 192° South 203 234 20,000  Level Indianapolis Center
Thu 08:03:07 PM 37.7367 -85.0694 194° South 200 230 20,000  Level Indianapolis Center
Thu 08:04:09 PM 37.6722 -85.0886 193° South 201 231 20,000  Level Indianapolis Center
Thu 08:05:10 PM 37.6167 -85.1028 191° South 204 235 20,000  Level Indianapolis Center
Thu 08:06:11 PM 37.5608 -85.1197 194° South 207 238 20,000  Level Indianapolis Center
Thu 08:07:13 PM 37.5047 -85.1344 192° South 205 236 20,000  Level Indianapolis Center
Thu 08:08:14 PM 37.4500 -85.1519 194° South 202 232 20,000  Level Indianapolis Center
Thu 08:09:15 PM 37.3956 -85.1675 193° South 200 230 20,000  Level Indianapolis Center
Thu 08:10:17 PM 37.3436 -85.1806 191° South 191 220 20,000  Level Indianapolis Center
Thu 08:11:18 PM 37.2911 -85.1939 191° South 191 220 20,000  Level Indianapolis Center
Thu 08:12:19 PM 37.2317 -85.2092 192° South 188 216 20,000  Level Indianapolis Center
Thu 08:13:21 PM 37.1808 -85.2236 193° South 187 215 20,000  Level Indianapolis Center
Thu 08:14:22 PM 37.1286 -85.2372 192° South 190 219 20,000  Level Indianapolis Center
Thu 08:15:24 PM 37.0769 -85.2522 193° South 191 220 20,000 49 Level Indianapolis Center
Thu 08:16:25 PM 37.0203 -85.2681 193° South 195 224 20,100  Climbing Indianapolis Center
Thu 08:17:26 PM 36.9686 -85.2839 194° South 195 224 20,000 -49 Descending Indianapolis Center
Thu 08:18:28 PM 36.9158 -85.2989 193° South 194 223 20,000 49 Level Indianapolis Center
Thu 08:19:29 PM 36.8619 -85.3106 190° South 196 226 20,100 49 Climbing Indianapolis Center
Thu 08:20:31 PM 36.8083 -85.3258 193° South 197 227 20,100 -49 Level Indianapolis Center
Thu 08:21:32 PM 36.7544 -85.3406 192° South 198 228 20,000 -49 Descending Indianapolis Center
Thu 08:22:34 PM 36.7036 -85.3575 195° South 191 220 20,000  Level Indianapolis Center
Thu 08:23:35 PM 36.6500 -85.3756 195° South 196 226 20,000  Level Indianapolis Center
Thu 08:24:36 PM 36.5875 -85.3964 195° South 194 223 20,000  Level Indianapolis Center
Thu 08:25:38 PM 36.5342 -85.4139 195° South 197 227 20,000  Level Indianapolis Center
Thu 08:26:39 PM 36.4808 -85.4292 193° South 196 226 20,000  Level Indianapolis Center
Thu 08:27:41 PM 36.4258 -85.4467 194° South 202 232 20,000 48 Level Indianapolis Center
Thu 08:28:43 PM 36.3725 -85.4603 192° South 198 228 20,100  Climbing Indianapolis Center
Thu 08:29:44 PM 36.3186 -85.4767 194° South 199 229 20,000 -49 Descending Indianapolis Center
Thu 08:30:46 PM 36.2642 -85.4908 192° South 200 230 20,000  Level Indianapolis Center
Thu 08:31:47 PM 36.2089 -85.5047 191° South 200 230 20,000  Level Indianapolis Center
Thu 08:32:48 PM 36.1431 -85.5203 191° South 202 232 20,000  Level Indianapolis Center
Thu 08:33:41 PM 36.0978 -85.5278 188° South 201 231 20,000  Level Memphis Center
Thu 08:34:41 PM 36.0442 -85.5386 189° South 201 231 20,000 -50 Level Memphis Center
Thu 08:35:41 PM 35.9883 -85.5497 189° South 201 231 19,900  Descending Memphis Center
Thu 08:36:41 PM 35.9347 -85.5656 193° South 201 231 20,000 50 Climbing Memphis Center
Thu 08:37:41 PM 35.8808 -85.5789 191° South 201 231 20,000  Level Memphis Center
Thu 08:38:41 PM 35.8272 -85.5950 194° South 201 231 20,000  Level Memphis Center
Thu 08:39:41 PM 35.7736 -85.6083 191° South 201 231 20,000  Level Memphis Center
Thu 08:40:41 PM 35.7200 -85.6217 191° South 201 231 20,000  Level Memphis Center
Thu 08:41:41 PM 35.6639 -85.6325 189° South 201 231 20,000  Level Memphis Center
Thu 08:42:41 PM 35.6081 -85.6433 189° South 201 231 20,000  Level Memphis Center
Thu 08:43:41 PM 35.5544 -85.6592 194° South 201 231 20,000  Level Memphis Center
Thu 08:44:41 PM 35.5031 -85.6772 196° South 201 231 20,000  Level Memphis Center
Thu 08:45:41 PM 35.4406 -85.6808 183° South 201 231 20,000  Level Memphis Center
Thu 08:46:41 PM 35.3842 -85.6739 174° South 206 237 20,000  Level Memphis Center
Thu 08:47:41 PM 35.3250 -85.6567 167° South 211 243 20,000  Level Memphis Center
Thu 08:48:41 PM 35.2658 -85.6347 163° South 217 250 20,000  Level Memphis Center
Thu 08:50:41 PM 35.1569 -85.6469 185° South 204 235 20,000 -133 Level Atlanta Center
Thu 08:51:41 PM 35.1025 -85.6711 200° South 204 235 19,600 -900 Descending Atlanta Center
Thu 08:52:41 PM 35.0394 -85.6928 196° South 218 251 18,200 -1,400 Descending Atlanta Center
Thu 08:53:41 PM 34.9725 -85.7194 198° South 238 274 16,800 -1,250 Descending Atlanta Center
Thu 08:54:41 PM 34.9031 -85.7458 197° South 257 296 15,700 -1,100 Descending Atlanta Center
Thu 08:55:41 PM 34.8361 -85.7722 198° South 257 296 14,600 -1,350 Descending Atlanta Center
Thu 08:56:41 PM 34.7667 -85.8011 199° South 262 302 13,000 -1,550 Descending Atlanta Center
Thu 08:57:41 PM 34.6953 -85.8325 200° South 269 310 11,500 -1,700 Descending Atlanta Center
Thu 08:58:41 PM 34.6281 -85.8589 198° South 269 310 9,600 -1,600 Descending Atlanta Center
Thu 08:59:41 PM 34.5631 -85.8825 197° South 264 304 8,300 -1,350 Descending Atlanta Center
Thu 09:00:41 PM 34.5003 -85.9064 197° South 253 291 6,900 -1,300 Descending Atlanta Center
Thu 09:01:41 PM 34.4392 -85.9328 200° South 246 283 5,700 -1,250 Descending Atlanta Center
Thu 09:02:41 PM 34.3783 -85.9542 196° South 235 270 4,400 -800 Descending Atlanta Center
Thu 09:03:41 PM 34.3092 -85.9803 197° South 235 270 4,100 -300 Descending Atlanta Center

Login

Don't have an account? Register now (free) for customized features, flight alerts, and more!